createdAt,value
2022-11-10T00:00:36.392Z,11.30
2022-11-10T00:03:12.311Z,11.30
2022-11-10T00:05:43.779Z,11.30
2022-11-10T00:08:14.638Z,11.40
2022-11-10T00:11:01.177Z,11.40
2022-11-10T00:13:35.413Z,11.40
2022-11-10T00:16:35.292Z,11.30
2022-11-10T00:19:02.015Z,11.30
2022-11-10T00:21:28.721Z,11.30
2022-11-10T00:23:58.001Z,11.30
2022-11-10T00:26:25.062Z,11.30
2022-11-10T00:28:55.559Z,11.30
2022-11-10T00:31:24.789Z,11.20
2022-11-10T00:33:53.948Z,11.20
2022-11-10T00:36:20.758Z,11.20
2022-11-10T00:38:50.860Z,11.20
2022-11-10T00:41:20.002Z,11.30
2022-11-10T00:43:49.466Z,11.20
2022-11-10T00:46:18.649Z,11.30
2022-11-10T00:48:45.450Z,11.20
2022-11-10T00:51:24.024Z,11.20
2022-11-10T00:53:51.377Z,11.10
2022-11-10T00:56:19.104Z,11.10
2022-11-10T00:58:46.152Z,11.10
2022-11-10T01:01:16.818Z,11.10
2022-11-10T01:03:45.855Z,11.10
2022-11-10T01:06:15.323Z,11.10
2022-11-10T01:08:45.404Z,11.10
2022-11-10T01:11:21.236Z,11.10
2022-11-10T01:13:51.007Z,11.20
2022-11-10T01:16:23.027Z,11.10
2022-11-10T01:18:54.213Z,11.20
2022-11-10T01:21:24.706Z,11.10
2022-11-10T01:23:54.420Z,11.10
2022-11-10T01:26:26.599Z,11.10
2022-11-10T01:28:55.512Z,11.10
2022-11-10T01:31:24.934Z,11.10
2022-11-10T01:33:51.600Z,11.10
2022-11-10T01:36:20.535Z,11.10
2022-11-10T01:38:49.632Z,11.10
2022-11-10T01:41:18.522Z,11.10
2022-11-10T01:43:49.918Z,11.10
2022-11-10T01:46:21.412Z,11.00
2022-11-10T01:49:02.720Z,11.00
2022-11-10T01:51:41.055Z,10.90
2022-11-10T01:54:33.611Z,10.80
2022-11-10T01:57:06.892Z,10.90
2022-11-10T01:59:48.741Z,10.90
2022-11-10T02:02:42.184Z,10.90
2022-11-10T02:05:09.250Z,10.90
2022-11-10T02:07:36.303Z,11.00
2022-11-10T02:10:03.526Z,11.00
2022-11-10T02:12:40.639Z,11.10
2022-11-10T02:15:15.696Z,11.10
2022-11-10T02:17:51.125Z,11.00
2022-11-10T02:20:20.003Z,11.00
2022-11-10T02:22:49.277Z,10.90
2022-11-10T02:25:22.516Z,10.90
2022-11-10T02:27:51.617Z,10.80
2022-11-10T02:30:25.156Z,10.80
2022-11-10T02:32:56.623Z,10.70
2022-11-10T02:35:25.767Z,10.70
2022-11-10T02:37:54.568Z,10.60
2022-11-10T02:40:23.572Z,10.70
2022-11-10T02:42:52.728Z,10.60
2022-11-10T02:45:19.405Z,10.60
2022-11-10T02:47:50.602Z,10.60
2022-11-10T02:50:19.810Z,10.60
2022-11-10T02:52:51.040Z,10.60
2022-11-10T02:55:20.198Z,10.70
2022-11-10T02:57:46.851Z,10.70
2022-11-10T03:00:16.178Z,10.70
2022-11-10T03:02:45.684Z,10.80
2022-11-10T03:05:14.767Z,10.80
2022-11-10T03:07:43.833Z,10.80
2022-11-10T03:10:10.561Z,10.80
2022-11-10T03:12:37.306Z,10.80
2022-11-10T03:15:06.472Z,10.80
2022-11-10T03:17:33.129Z,10.80
2022-11-10T03:19:59.838Z,10.80
2022-11-10T03:22:26.499Z,10.80
2022-11-10T03:24:55.587Z,10.80
2022-11-10T03:27:26.963Z,10.80
2022-11-10T03:29:53.614Z,10.80
2022-11-10T03:32:22.684Z,10.80
2022-11-10T03:34:49.376Z,10.80
2022-11-10T03:37:18.554Z,10.80
2022-11-10T03:39:47.381Z,10.80
2022-11-10T03:42:16.588Z,10.80
2022-11-10T03:44:43.376Z,10.80
2022-11-10T03:47:12.195Z,10.80
2022-11-10T03:49:39.067Z,10.80
2022-11-10T03:52:07.919Z,10.80
2022-11-10T03:54:34.625Z,10.80
2022-11-10T03:57:01.271Z,10.80
2022-11-10T03:59:27.984Z,10.80
2022-11-10T04:01:59.164Z,10.80
2022-11-10T04:04:44.535Z,10.80
2022-11-10T04:07:37.533Z,10.80
2022-11-10T04:10:07.029Z,10.80
2022-11-10T04:12:52.369Z,10.80
2022-11-10T04:15:39.777Z,10.80
2022-11-10T04:18:21.348Z,10.70
2022-11-10T04:20:50.950Z,10.60
2022-11-10T04:23:29.175Z,10.50
2022-11-10T04:26:30.064Z,10.50
2022-11-10T04:29:01.534Z,10.40
2022-11-10T04:31:35.648Z,10.40
2022-11-10T04:34:02.380Z,10.40
2022-11-10T04:36:31.225Z,10.30
2022-11-10T04:39:00.371Z,10.20
2022-11-10T04:41:35.327Z,10.10
2022-11-10T04:44:02.563Z,10.10
2022-11-10T04:46:29.211Z,10.10
2022-11-10T04:48:56.764Z,10.10
2022-11-10T04:51:28.762Z,10.20
2022-11-10T04:53:55.451Z,10.20
2022-11-10T04:56:25.980Z,10.20
2022-11-10T04:58:53.421Z,10.20
2022-11-10T05:01:25.310Z,10.20
2022-11-10T05:03:52.082Z,10.20
2022-11-10T05:06:24.645Z,10.10
2022-11-10T05:08:53.795Z,10.00
2022-11-10T05:11:20.500Z,9.90
2022-11-10T05:13:51.856Z,9.80
2022-11-10T05:16:21.156Z,9.80
2022-11-10T05:18:53.963Z,9.70
2022-11-10T05:21:22.885Z,9.70
2022-11-10T05:23:54.251Z,9.70
2022-11-10T05:26:21.003Z,9.80
2022-11-10T05:28:50.004Z,9.80
2022-11-10T05:31:16.705Z,9.90
2022-11-10T05:33:45.905Z,9.90
2022-11-10T05:36:12.630Z,9.90
2022-11-10T05:38:43.499Z,9.90
2022-11-10T05:41:11.212Z,10.00
2022-11-10T05:43:38.146Z,9.90
2022-11-10T05:46:04.973Z,9.90
2022-11-10T05:48:31.642Z,9.80
2022-11-10T05:51:00.803Z,9.80
2022-11-10T05:53:29.933Z,9.80
2022-11-10T05:55:56.832Z,9.80
2022-11-10T05:58:23.544Z,9.70
2022-11-10T06:00:50.239Z,9.70
2022-11-10T06:03:21.614Z,9.80
2022-11-10T06:05:51.014Z,9.80
2022-11-10T06:08:20.935Z,9.80
2022-11-10T06:10:47.665Z,9.80
2022-11-10T06:13:18.775Z,9.80
2022-11-10T06:15:50.175Z,9.70
2022-11-10T06:18:19.832Z,9.60
2022-11-10T06:20:47.606Z,9.50
2022-11-10T06:23:15.040Z,9.40
2022-11-10T06:25:44.673Z,9.30
2022-11-10T06:28:14.737Z,9.20
2022-11-10T06:30:43.705Z,9.20
2022-11-10T06:33:10.613Z,9.20
2022-11-10T06:35:44.562Z,9.20
2022-11-10T06:38:13.969Z,9.20
2022-11-10T06:40:40.684Z,9.10
2022-11-10T06:43:09.610Z,9.20
2022-11-10T06:45:38.641Z,9.20
2022-11-10T06:48:09.956Z,9.30
2022-11-10T06:50:36.729Z,9.40
2022-11-10T06:53:05.714Z,9.40
2022-11-10T06:55:32.494Z,9.40
2022-11-10T06:58:01.813Z,9.50
2022-11-10T07:00:31.262Z,9.50
2022-11-10T07:03:10.469Z,9.50
2022-11-10T07:05:42.623Z,9.60
2022-11-10T07:08:18.637Z,9.60
2022-11-10T07:10:54.009Z,9.60
2022-11-10T07:13:21.379Z,9.70
2022-11-10T07:15:51.509Z,9.70
2022-11-10T07:18:20.679Z,9.70
2022-11-10T07:20:47.387Z,9.60
2022-11-10T07:23:14.086Z,9.60
2022-11-10T07:25:42.975Z,9.50
2022-11-10T07:28:13.006Z,9.50
2022-11-10T07:30:41.455Z,9.60
2022-11-10T07:33:12.815Z,9.60
2022-11-10T07:35:40.342Z,9.70
2022-11-10T07:38:14.646Z,9.80
2022-11-10T07:40:43.769Z,9.80
2022-11-10T07:43:10.432Z,9.80
2022-11-10T07:45:37.187Z,9.90
2022-11-10T07:48:06.308Z,9.90
2022-11-10T07:50:35.608Z,10.00
2022-11-10T07:53:11.280Z,10.10
2022-11-10T07:55:42.056Z,10.20
2022-11-10T07:58:09.598Z,10.20
2022-11-10T08:00:37.025Z,10.20
2022-11-10T08:03:06.571Z,10.30
2022-11-10T08:05:35.894Z,10.40
2022-11-10T08:08:03.565Z,10.40
2022-11-10T08:10:31.505Z,10.40
2022-11-10T08:13:05.075Z,10.40
2022-11-10T08:15:37.914Z,10.40
2022-11-10T08:18:07.690Z,10.20
2022-11-10T08:20:34.733Z,10.20
2022-11-10T08:23:03.723Z,10.10
2022-11-10T08:25:35.495Z,10.00
2022-11-10T08:28:03.663Z,10.00
2022-11-10T08:30:31.542Z,10.10
2022-11-10T08:33:05.121Z,10.10
2022-11-10T08:35:35.617Z,10.10
2022-11-10T08:38:12.498Z,10.10
2022-11-10T08:40:45.803Z,10.10
2022-11-10T08:43:16.164Z,10.10
2022-11-10T08:45:44.398Z,10.20
2022-11-10T08:48:23.025Z,10.20
2022-11-10T08:50:52.878Z,10.30
2022-11-10T08:53:25.130Z,10.40
2022-11-10T08:55:53.298Z,10.40
2022-11-10T08:58:21.965Z,10.50
2022-11-10T09:00:50.785Z,10.60
2022-11-10T09:03:27.107Z,10.60
2022-11-10T09:05:58.376Z,10.60
2022-11-10T09:08:25.692Z,10.60
2022-11-10T09:10:55.819Z,10.70
2022-11-10T09:13:29.513Z,10.80
2022-11-10T09:16:00.713Z,10.90
2022-11-10T09:18:30.126Z,11.00
2022-11-10T09:20:57.136Z,11.10
2022-11-10T09:23:28.460Z,11.00
2022-11-10T09:25:56.265Z,11.00
2022-11-10T09:28:23.364Z,11.00
2022-11-10T09:30:54.019Z,11.00
2022-11-10T09:33:25.920Z,11.10
2022-11-10T09:36:00.094Z,11.10
2022-11-10T09:38:26.847Z,11.30
2022-11-10T09:41:10.412Z,11.30
2022-11-10T09:43:52.078Z,11.40
2022-11-10T09:46:30.971Z,11.40
2022-11-10T09:49:12.086Z,11.50
2022-11-10T09:51:48.341Z,11.70
2022-11-10T09:54:42.614Z,11.80
2022-11-10T09:57:15.592Z,11.70
2022-11-10T09:59:43.740Z,11.70
2022-11-10T10:02:12.810Z,11.60
2022-11-10T10:05:06.549Z,11.50
2022-11-10T10:07:51.134Z,11.40
2022-11-10T10:10:23.932Z,11.40
2022-11-10T10:12:57.121Z,11.40
2022-11-10T10:15:35.277Z,11.30
2022-11-10T10:18:14.724Z,11.30
2022-11-10T10:21:09.274Z,11.40
2022-11-10T10:24:08.376Z,11.50
2022-11-10T10:26:42.280Z,11.60
2022-11-10T10:29:21.605Z,11.70
2022-11-10T10:31:53.279Z,11.90
2022-11-10T10:34:31.738Z,12.10
2022-11-10T10:37:00.897Z,12.20
2022-11-10T10:39:30.813Z,12.20
2022-11-10T10:42:01.964Z,12.30
2022-11-10T10:44:31.099Z,12.40
2022-11-10T10:47:02.998Z,12.30
2022-11-10T10:49:33.492Z,12.30
2022-11-10T10:52:10.432Z,12.30
2022-11-10T10:54:40.241Z,12.30
2022-11-10T10:57:30.000Z,12.20
2022-11-10T11:00:22.507Z,12.20
2022-11-10T11:03:04.980Z,12.10
2022-11-10T11:05:33.991Z,12.10
2022-11-10T11:08:03.854Z,12.20
2022-11-10T11:10:38.210Z,12.20
2022-11-10T11:13:26.830Z,12.40
2022-11-10T11:16:12.245Z,12.60
2022-11-10T11:18:42.229Z,12.80
2022-11-10T11:21:27.779Z,12.90
2022-11-10T11:24:12.886Z,13.10
2022-11-10T11:27:00.176Z,13.30
2022-11-10T11:29:34.122Z,13.50
2022-11-10T11:32:41.000Z,13.60
2022-11-10T11:35:34.057Z,13.60
2022-11-10T11:38:16.738Z,13.50
2022-11-10T11:41:04.546Z,13.50
2022-11-10T11:44:01.622Z,13.50
2022-11-10T11:46:34.783Z,13.50
2022-11-10T11:49:26.133Z,13.40
2022-11-10T11:52:36.102Z,13.40
2022-11-10T11:55:07.482Z,13.40
2022-11-10T11:57:52.980Z,13.40
2022-11-10T12:00:21.811Z,13.50
2022-11-10T12:03:10.013Z,13.50
2022-11-10T12:05:51.812Z,13.50
2022-11-10T12:08:33.006Z,13.60
2022-11-10T12:11:35.477Z,13.60
2022-11-10T12:14:11.081Z,13.60
2022-11-10T12:16:45.474Z,13.60
2022-11-10T12:19:39.178Z,13.60
2022-11-10T12:22:21.627Z,13.60
2022-11-10T12:25:16.209Z,13.60
2022-11-10T12:27:52.697Z,13.60
2022-11-10T12:30:19.691Z,13.60
2022-11-10T12:32:55.187Z,13.60
2022-11-10T12:35:35.445Z,13.60
2022-11-10T12:38:08.425Z,13.60
2022-11-10T12:40:44.134Z,13.60
2022-11-10T12:43:33.888Z,13.60
2022-11-10T12:46:07.678Z,13.60
2022-11-10T12:48:49.878Z,13.60
2022-11-10T12:51:35.458Z,13.70
2022-11-10T12:54:05.137Z,13.60
2022-11-10T12:56:37.734Z,13.50
2022-11-10T12:59:27.968Z,13.60
2022-11-10T13:02:03.372Z,13.60
2022-11-10T13:04:33.631Z,13.50
2022-11-10T13:07:13.103Z,13.50
2022-11-10T13:09:43.671Z,13.50
2022-11-10T13:12:21.749Z,13.50
2022-11-10T13:14:49.441Z,13.40
2022-11-10T13:17:28.505Z,13.30
2022-11-10T13:20:05.205Z,13.30
2022-11-10T13:22:41.331Z,13.40
2022-11-10T13:25:36.374Z,13.40
2022-11-10T13:28:08.554Z,13.40
2022-11-10T13:30:46.016Z,13.50
2022-11-10T13:33:34.160Z,13.60
2022-11-10T13:36:01.083Z,13.60
2022-11-10T13:38:41.035Z,13.50
2022-11-10T13:41:34.661Z,13.50
2022-11-10T13:44:01.834Z,13.40
2022-11-10T13:46:35.805Z,13.30
2022-11-10T13:49:15.841Z,13.30
2022-11-10T13:51:53.747Z,13.20
2022-11-10T13:54:41.716Z,13.20
2022-11-10T13:57:31.967Z,13.10
2022-11-10T14:00:01.713Z,13.10
2022-11-10T14:02:34.152Z,13.00
2022-11-10T14:05:04.340Z,12.90
2022-11-10T14:07:43.059Z,12.90
2022-11-10T14:10:36.177Z,12.80
2022-11-10T14:13:11.341Z,12.80
2022-11-10T14:15:45.162Z,12.70
2022-11-10T14:18:23.609Z,12.70
2022-11-10T14:21:02.050Z,12.60
2022-11-10T14:23:42.412Z,12.50
2022-11-10T14:26:22.881Z,12.50
2022-11-10T14:28:51.754Z,12.50
2022-11-10T14:31:23.287Z,12.40
2022-11-10T14:33:58.411Z,12.30
2022-11-10T14:36:28.199Z,12.20
2022-11-10T14:38:54.972Z,12.20
2022-11-10T14:41:23.004Z,12.10
2022-11-10T14:44:00.824Z,12.10
2022-11-10T14:46:29.893Z,12.00
2022-11-10T14:49:00.220Z,12.00
2022-11-10T14:51:28.992Z,11.90
2022-11-10T14:53:57.145Z,11.80
2022-11-10T14:56:34.245Z,11.60
2022-11-10T14:59:03.474Z,11.60
2022-11-10T15:01:35.694Z,11.50
2022-11-10T15:04:07.451Z,11.50
2022-11-10T15:06:34.873Z,11.40
2022-11-10T15:09:16.208Z,11.40
2022-11-10T15:12:05.116Z,11.30
2022-11-10T15:14:35.372Z,11.10
2022-11-10T15:17:09.511Z,11.00
2022-11-10T15:19:40.322Z,11.00
2022-11-10T15:22:30.827Z,10.90
2022-11-10T15:25:03.286Z,10.90
2022-11-10T15:27:32.694Z,10.80
2022-11-10T15:30:21.942Z,10.80
2022-11-10T15:32:49.235Z,10.70
2022-11-10T15:35:28.911Z,10.60
2022-11-10T15:38:22.556Z,10.50
2022-11-10T15:41:03.972Z,10.50
2022-11-10T15:43:30.734Z,10.40
2022-11-10T15:45:59.857Z,10.30
2022-11-10T15:48:33.882Z,10.30
2022-11-10T15:51:00.831Z,10.20
2022-11-10T15:53:31.606Z,10.20
2022-11-10T15:56:03.151Z,10.10
2022-11-10T15:58:30.021Z,10.00
2022-11-10T16:00:56.807Z,9.90
2022-11-10T16:03:27.778Z,9.80
2022-11-10T16:05:54.528Z,9.70
2022-11-10T16:08:23.168Z,9.60
2022-11-10T16:10:54.117Z,9.50
2022-11-10T16:13:32.526Z,9.50
2022-11-10T16:16:02.809Z,9.40
2022-11-10T16:18:30.728Z,9.30
2022-11-10T16:20:57.734Z,9.30
2022-11-10T16:23:26.223Z,9.20
2022-11-10T16:25:55.613Z,9.10
2022-11-10T16:28:26.117Z,9.10
2022-11-10T16:30:54.207Z,9.00
2022-11-10T16:33:23.731Z,9.00
2022-11-10T16:35:52.488Z,9.00
2022-11-10T16:38:25.892Z,9.00
2022-11-10T16:41:03.824Z,9.00
2022-11-10T16:43:31.709Z,9.00
2022-11-10T16:46:03.233Z,9.00
2022-11-10T16:48:35.248Z,8.90
2022-11-10T16:51:02.397Z,8.80
2022-11-10T16:53:31.613Z,8.70
2022-11-10T16:56:01.043Z,8.70
2022-11-10T16:58:28.178Z,8.70
2022-11-10T17:00:59.304Z,8.60
2022-11-10T17:03:33.455Z,8.50
2022-11-10T17:06:00.477Z,8.50
2022-11-10T17:08:37.539Z,8.40
2022-11-10T17:11:04.447Z,8.40
2022-11-10T17:13:31.187Z,8.40
2022-11-10T17:16:14.430Z,8.40
2022-11-10T17:18:43.598Z,8.40
2022-11-10T17:21:13.416Z,8.40
2022-11-10T17:23:40.575Z,8.40
2022-11-10T17:26:11.362Z,8.30
2022-11-10T17:28:40.644Z,8.30
2022-11-10T17:31:07.656Z,8.20
2022-11-10T17:33:36.659Z,8.10
2022-11-10T17:36:05.093Z,8.10
2022-11-10T17:38:35.979Z,8.00
2022-11-10T17:41:02.728Z,8.00
2022-11-10T17:43:29.469Z,8.10
2022-11-10T17:45:56.167Z,8.10
2022-11-10T17:48:25.273Z,8.10
2022-11-10T17:50:51.981Z,8.10
2022-11-10T17:53:22.146Z,8.00
2022-11-10T17:55:49.715Z,8.00
2022-11-10T17:58:17.640Z,8.00
2022-11-10T18:00:45.581Z,7.90
2022-11-10T18:03:20.058Z,7.80
2022-11-10T18:05:47.852Z,7.70
2022-11-10T18:08:18.408Z,7.80
2022-11-10T18:10:53.513Z,7.70
2022-11-10T18:13:23.061Z,7.70
2022-11-10T18:15:54.217Z,7.60
2022-11-10T18:18:20.934Z,7.60
2022-11-10T18:21:04.121Z,7.60
2022-11-10T18:23:30.956Z,7.60
2022-11-10T18:26:04.401Z,7.50
2022-11-10T18:28:36.102Z,7.50
2022-11-10T18:31:13.667Z,7.40
2022-11-10T18:33:40.608Z,7.40
2022-11-10T18:36:10.159Z,7.30
2022-11-10T18:38:37.206Z,7.30
2022-11-10T18:41:23.972Z,7.20
2022-11-10T18:43:50.785Z,7.20
2022-11-10T18:46:17.690Z,7.20
2022-11-10T18:48:47.928Z,7.20
2022-11-10T18:51:16.505Z,7.10
2022-11-10T18:53:43.390Z,7.00
2022-11-10T18:56:10.170Z,7.00
2022-11-10T18:58:36.965Z,7.00
2022-11-10T19:01:09.028Z,6.90
2022-11-10T19:03:38.960Z,6.90
2022-11-10T19:06:05.964Z,6.90
2022-11-10T19:08:32.656Z,6.90
2022-11-10T19:11:02.152Z,6.90
2022-11-10T19:13:31.139Z,7.00
2022-11-10T19:16:00.224Z,7.00
2022-11-10T19:18:29.315Z,6.90
2022-11-10T19:20:56.088Z,6.90
2022-11-10T19:23:23.138Z,6.90
2022-11-10T19:26:03.058Z,6.90
2022-11-10T19:28:30.269Z,6.90
2022-11-10T19:31:07.443Z,6.80
2022-11-10T19:33:36.270Z,6.70
2022-11-10T19:36:11.808Z,6.70
2022-11-10T19:38:39.271Z,6.70
2022-11-10T19:41:16.585Z,6.70
2022-11-10T19:43:47.253Z,6.60
2022-11-10T19:46:17.200Z,6.60
2022-11-10T19:48:44.613Z,6.60
2022-11-10T19:51:15.954Z,6.50
2022-11-10T19:53:47.357Z,6.50
2022-11-10T19:56:26.265Z,6.40
2022-11-10T19:58:55.841Z,6.40
2022-11-10T20:01:23.219Z,6.30
2022-11-10T20:03:52.660Z,6.40
2022-11-10T20:06:23.420Z,6.40
2022-11-10T20:08:50.535Z,6.30
2022-11-10T20:11:24.476Z,6.30
2022-11-10T20:13:56.587Z,6.30
2022-11-10T20:16:25.342Z,6.30
2022-11-10T20:18:52.147Z,6.30
2022-11-10T20:21:23.656Z,6.20
2022-11-10T20:23:55.853Z,6.20
2022-11-10T20:26:23.568Z,6.20
2022-11-10T20:28:52.875Z,6.20
2022-11-10T20:31:23.669Z,6.10
2022-11-10T20:33:53.173Z,6.10
2022-11-10T20:36:23.480Z,6.10
2022-11-10T20:38:50.903Z,6.10
2022-11-10T20:41:21.378Z,6.10
2022-11-10T20:43:48.864Z,6.20
2022-11-10T20:49:05.046Z,6.10
2022-11-10T20:51:31.825Z,6.10
2022-11-10T20:54:03.890Z,6.10
2022-11-10T20:56:32.877Z,6.00
2022-11-10T20:58:59.722Z,5.90
2022-11-10T21:01:26.810Z,5.90
2022-11-10T21:03:55.041Z,5.90
2022-11-10T21:06:21.834Z,6.00
2022-11-10T21:08:48.713Z,6.00
2022-11-10T21:11:35.376Z,5.90
2022-11-10T21:14:02.125Z,5.90
2022-11-10T21:16:31.444Z,5.80
2022-11-10T21:18:58.307Z,5.90
2022-11-10T21:21:34.639Z,5.90
2022-11-10T21:24:05.406Z,5.90
2022-11-10T21:26:36.191Z,5.80
2022-11-10T21:29:04.855Z,5.80
2022-11-10T21:31:31.723Z,5.70
2022-11-10T21:33:58.985Z,5.80
2022-11-10T21:36:32.429Z,5.70
2022-11-10T21:38:59.394Z,5.60
2022-11-10T21:41:26.625Z,5.60
2022-11-10T21:43:55.812Z,5.60
2022-11-10T21:46:22.787Z,5.60
2022-11-10T21:48:52.929Z,5.60
2022-11-10T21:51:22.300Z,5.60
2022-11-10T21:53:49.194Z,5.60
2022-11-10T21:56:16.002Z,5.50
2022-11-10T21:58:43.219Z,5.40
2022-11-10T22:01:13.256Z,5.40
2022-11-10T22:03:40.836Z,5.40
2022-11-10T22:06:09.285Z,5.40
2022-11-10T22:08:36.930Z,5.30
2022-11-10T22:11:22.597Z,5.30
2022-11-10T22:14:07.966Z,5.30
2022-11-10T22:17:09.644Z,5.20
2022-11-10T22:19:37.247Z,5.30
2022-11-10T22:22:04.515Z,5.30
2022-11-10T22:24:34.355Z,5.30
2022-11-10T22:27:03.045Z,5.30
2022-11-10T22:29:32.467Z,5.30
2022-11-10T22:32:00.790Z,5.30
2022-11-10T22:34:27.551Z,5.30
2022-11-10T22:36:59.394Z,5.20
2022-11-10T22:39:49.224Z,5.20
2022-11-10T22:42:34.527Z,5.20
2022-11-10T22:45:01.248Z,5.10
2022-11-10T22:47:48.033Z,5.10
2022-11-10T22:50:14.777Z,5.10
2022-11-10T22:52:41.510Z,5.00
2022-11-10T22:55:08.369Z,5.00
2022-11-10T22:57:35.118Z,5.00
2022-11-10T23:00:01.948Z,5.00
2022-11-10T23:02:28.712Z,4.90
2022-11-10T23:04:55.582Z,4.90
2022-11-10T23:07:24.770Z,4.90
2022-11-10T23:09:51.447Z,4.90
2022-11-10T23:12:18.500Z,4.90
2022-11-10T23:14:45.205Z,4.90
2022-11-10T23:17:11.926Z,4.90
2022-11-10T23:19:43.029Z,4.80
2022-11-10T23:22:09.824Z,4.80
2022-11-10T23:24:36.546Z,4.90
2022-11-10T23:27:03.792Z,4.90
2022-11-10T23:29:30.620Z,4.80
2022-11-10T23:31:59.944Z,4.90
2022-11-10T23:34:26.678Z,4.80
2022-11-10T23:36:58.142Z,4.80
2022-11-10T23:39:24.942Z,4.70
2022-11-10T23:41:51.585Z,4.70
2022-11-10T23:44:18.237Z,4.70
2022-11-10T23:46:47.126Z,4.70
2022-11-10T23:49:13.791Z,4.70
2022-11-10T23:51:42.972Z,4.70
2022-11-10T23:54:12.214Z,4.60
2022-11-10T23:56:41.411Z,4.70
2022-11-10T23:59:08.191Z,4.70
